Turtle Lake, Minnesota
Current Conditions -  °F | °C
As of 12:15 AM on Thursday 23 Oct 2014 (Local Time) from KY49 Reporting Station
Overcast Overcast  
Wind Chill: 47°   Ceiling: 1100
Heat Index: 49°   Visibility: 7mi
Dew Point: 48°   Wind: 7mph
Humidity: 94%   Direction: 180°S
Pressure: 29.92"   Gusts: NA
Location:  47.0507°N, 94.6083°W
Report Text: KY49 230515Z AUTO 18006KT 7SM BKN011 OVC016 10/09 A2992 RMK AO2 T00970088
Loading
Personal Weather Stations






























Interactive Weather Map
Tropical Storm Tracking
New forecast layout! Learn more

10-Day Weather Forecast

Advertisements
Track Severe Weather on mobile